Time;durP1;ratioP1;P1;durP2;ratioP2;P2;SDS_P1;SDS_P2;PMS_P1;PMS_P2;Temp;Humidity;BMP_temperature;BMP_pressure;BME280_temperature;BME280_humidity;BME280_pressure;Samples;Min_cycle;Max_cycle;Signal;HPM_P1;HPM_P2
2023/04/23 00:00:13;;;;;;;9.77;2.53;;;;;;;;;;4894793;29;20057;-62
2023/04/23 00:02:48;;;;;;;6.72;2.28;;;;;;;;;;4911016;29;20540;-62
2023/04/23 00:05:20;;;;;;;8.57;2.38;;;;;;;;;;4849529;29;20064;-64
2023/04/23 00:07:50;;;;;;;7.80;2.65;;;;;;;;;;4895198;29;20072;-62
2023/04/23 00:10:22;;;;;;;8.18;2.50;;;;;;;;;;4894860;29;20056;-62
2023/04/23 00:12:52;;;;;;;5.00;2.47;;;;;;;;;;4942245;28;20067;-63
2023/04/23 00:15:23;;;;;;;14.23;2.30;;;;;;;;;;5005829;28;20952;-62
2023/04/23 00:17:53;;;;;;;8.82;2.70;;;;;;;;;;5026845;28;20072;-63
2023/04/23 00:20:23;;;;;;;6.63;3.30;;;;;;;;;;5019489;28;20521;-63
2023/04/23 00:22:53;;;;;;;6.53;2.67;;;;;;;;;;5018976;28;20061;-64
2023/04/23 00:25:24;;;;;;;7.95;2.85;;;;;;;;;;5017369;28;20053;-64
2023/04/23 00:27:54;;;;;;;8.93;2.67;;;;;;;;;;5017565;28;20057;-63
2023/04/23 00:30:24;;;;;;;6.10;2.63;;;;;;;;;;5018950;28;20516;-64
2023/04/23 00:32:54;;;;;;;10.07;3.65;;;;;;;;;;5022205;28;20080;-62
2023/04/23 00:35:24;;;;;;;7.65;2.63;;;;;;;;;;4995311;28;20410;-63
2023/04/23 00:37:55;;;;;;;9.18;2.83;;;;;;;;;;5028669;28;20033;-62
2023/04/23 00:40:25;;;;;;;9.73;2.80;;;;;;;;;;5011314;28;21483;-66
2023/04/23 00:42:57;;;;;;;7.55;3.20;;;;;;;;;;5028659;28;20083;-64
2023/04/23 00:45:27;;;;;;;10.05;2.80;;;;;;;;;;5009506;28;20057;-62
2023/04/23 00:47:58;;;;;;;6.68;3.15;;;;;;;;;;4995261;28;20424;-62
2023/04/23 00:50:28;;;;;;;8.13;3.25;;;;;;;;;;4999353;28;20421;-62
2023/04/23 00:52:59;;;;;;;11.63;2.63;;;;;;;;;;5008866;28;20153;-65
2023/04/23 00:55:29;;;;;;;9.32;3.47;;;;;;;;;;4988482;28;20058;-66
2023/04/23 00:58:00;;;;;;;8.57;3.05;;;;;;;;;;4923840;28;20050;-64
2023/04/23 01:00:30;;;;;;;10.23;3.20;;;;;;;;;;4917995;29;20412;-63
2023/04/23 01:03:01;;;;;;;11.73;2.90;;;;;;;;;;4902462;29;20059;-64
2023/04/23 01:05:31;;;;;;;7.78;2.70;;;;;;;;;;4950993;29;20082;-62
2023/04/23 01:08:01;;;;;;;7.22;2.80;;;;;;;;;;4919633;29;20071;-62
2023/04/23 01:10:33;;;;;;;8.82;2.78;;;;;;;;;;4935101;29;20062;-63
2023/04/23 01:13:04;;;;;;;10.60;3.42;;;;;;;;;;4919486;29;20047;-63
2023/04/23 01:15:34;;;;;;;11.48;2.88;;;;;;;;;;4931466;29;20043;-62
2023/04/23 01:18:06;;;;;;;7.97;2.65;;;;;;;;;;4931705;29;20060;-63
2023/04/23 01:20:38;;;;;;;12.93;3.42;;;;;;;;;;4893635;29;20049;-62
2023/04/23 01:23:08;;;;;;;9.20;3.10;;;;;;;;;;4893125;29;20056;-65
2023/04/23 01:25:38;;;;;;;10.25;2.88;;;;;;;;;;4874704;29;20064;-64
2023/04/23 01:28:09;;;;;;;8.55;3.00;;;;;;;;;;4875066;29;20053;-62
2023/04/23 01:30:42;;;;;;;6.55;2.92;;;;;;;;;;4837770;29;20482;-63
2023/04/23 01:33:12;;;;;;;8.93;2.85;;;;;;;;;;4857460;29;20065;-62
2023/04/23 01:35:44;;;;;;;10.00;3.35;;;;;;;;;;4828905;29;20166;-66
2023/04/23 01:38:15;;;;;;;9.60;2.85;;;;;;;;;;4884982;29;20083;-62
2023/04/23 01:40:45;;;;;;;9.48;2.85;;;;;;;;;;4878293;29;20422;-62
2023/04/23 01:43:17;;;;;;;9.55;3.08;;;;;;;;;;4847177;29;20053;-62
2023/04/23 01:45:47;;;;;;;8.18;2.88;;;;;;;;;;4874759;29;20048;-63
2023/04/23 01:48:37;;;;;;;7.30;2.80;;;;;;;;;;4837529;29;20061;-62
2023/04/23 01:51:10;;;;;;;7.18;2.83;;;;;;;;;;4837739;29;20062;-62
2023/04/23 01:53:41;;;;;;;12.07;3.13;;;;;;;;;;4863480;29;20053;-62
2023/04/23 01:56:13;;;;;;;7.45;2.72;;;;;;;;;;4874809;29;20076;-62
2023/04/23 01:58:43;;;;;;;7.88;4.13;;;;;;;;;;4887350;29;20071;-64
2023/04/23 02:01:13;;;;;;;11.80;3.30;;;;;;;;;;4893126;29;20059;-63
2023/04/23 02:03:44;;;;;;;14.60;3.38;;;;;;;;;;4893378;29;20204;-62
2023/04/23 02:06:15;;;;;;;10.55;3.72;;;;;;;;;;4893281;29;20867;-62
2023/04/23 02:08:45;;;;;;;13.00;3.88;;;;;;;;;;4919294;29;20066;-62
2023/04/23 02:11:15;;;;;;;9.43;4.05;;;;;;;;;;4893187;29;20053;-62
2023/04/23 02:13:45;;;;;;;10.27;3.22;;;;;;;;;;4892850;29;20045;-62
2023/04/23 02:16:15;;;;;;;9.40;3.10;;;;;;;;;;4893184;29;20056;-63
2023/04/23 02:18:45;;;;;;;9.80;3.47;;;;;;;;;;4865213;29;20052;-62
2023/04/23 02:21:17;;;;;;;10.70;3.35;;;;;;;;;;4895552;29;20063;-62
2023/04/23 02:23:47;;;;;;;9.10;3.38;;;;;;;;;;4912031;29;20067;-62
2023/04/23 02:26:17;;;;;;;12.35;3.55;;;;;;;;;;4921946;29;20055;-62
2023/04/23 02:28:48;;;;;;;11.18;3.15;;;;;;;;;;4914974;29;20059;-66
2023/04/23 02:31:19;;;;;;;9.00;3.28;;;;;;;;;;4911784;29;20056;-62
2023/04/23 02:33:50;;;;;;;10.57;3.88;;;;;;;;;;4875516;29;20053;-66
2023/04/23 02:36:21;;;;;;;7.40;3.45;;;;;;;;;;4896813;29;20060;-62
2023/04/23 02:38:51;;;;;;;7.75;3.33;;;;;;;;;;4906073;29;20055;-62
2023/04/23 02:41:21;;;;;;;7.78;3.25;;;;;;;;;;4896317;29;20079;-62
2023/04/23 02:43:51;;;;;;;11.98;3.42;;;;;;;;;;4856046;29;20053;-62
2023/04/23 02:46:22;;;;;;;10.57;3.45;;;;;;;;;;4825535;29;20077;-66
2023/04/23 02:48:52;;;;;;;12.35;3.63;;;;;;;;;;4858516;29;20065;-62
2023/04/23 02:51:22;;;;;;;9.40;4.32;;;;;;;;;;4840399;29;20062;-62
2023/04/23 02:53:52;;;;;;;9.52;3.42;;;;;;;;;;4810442;29;20088;-62
2023/04/23 02:56:23;;;;;;;15.50;3.65;;;;;;;;;;4825050;29;20081;-62
2023/04/23 02:58:53;;;;;;;12.40;4.00;;;;;;;;;;4858968;29;20053;-62
2023/04/23 03:01:23;;;;;;;12.13;3.67;;;;;;;;;;4858672;29;20057;-63
2023/04/23 03:03:54;;;;;;;12.65;4.40;;;;;;;;;;4798552;29;20056;-62
2023/04/23 03:06:24;;;;;;;12.30;4.22;;;;;;;;;;4858515;29;20053;-62
2023/04/23 03:08:55;;;;;;;12.75;4.32;;;;;;;;;;4852107;29;20045;-62
2023/04/23 03:11:25;;;;;;;8.75;4.00;;;;;;;;;;4894755;29;20547;-62
2023/04/23 03:13:55;;;;;;;7.30;3.63;;;;;;;;;;4850109;29;20057;-62
2023/04/23 03:16:27;;;;;;;10.73;4.00;;;;;;;;;;4832538;29;20061;-66
2023/04/23 03:19:00;;;;;;;8.13;3.58;;;;;;;;;;4867188;29;20053;-64
2023/04/23 03:21:30;;;;;;;7.95;3.85;;;;;;;;;;4831091;29;20058;-62
2023/04/23 03:24:00;;;;;;;9.60;3.72;;;;;;;;;;4807095;29;20073;-63
2023/04/23 03:26:30;;;;;;;12.70;4.30;;;;;;;;;;4821559;29;20058;-62
2023/04/23 03:29:00;;;;;;;9.52;4.28;;;;;;;;;;4830304;29;20064;-62
2023/04/23 03:31:31;;;;;;;6.93;3.38;;;;;;;;;;4821431;29;20119;-62
2023/04/23 03:34:01;;;;;;;12.00;3.88;;;;;;;;;;4803157;29;20512;-63
2023/04/23 03:36:35;;;;;;;11.82;4.05;;;;;;;;;;4761692;30;20048;-62
2023/04/23 03:39:06;;;;;;;9.20;4.47;;;;;;;;;;4785090;29;20547;-62
2023/04/23 03:41:50;;;;;;;7.53;3.88;;;;;;;;;;4792296;29;20062;-63
2023/04/23 03:44:25;;;;;;;9.85;4.25;;;;;;;;;;4749143;30;20056;-62
2023/04/23 03:46:56;;;;;;;12.07;4.05;;;;;;;;;;4766445;30;20071;-65
2023/04/23 03:49:26;;;;;;;16.40;4.13;;;;;;;;;;4764122;29;20071;-65
2023/04/23 03:51:57;;;;;;;10.57;4.38;;;;;;;;;;4778059;29;20086;-62
2023/04/23 03:54:29;;;;;;;8.18;3.95;;;;;;;;;;4773449;29;20161;-62
2023/04/23 03:57:13;;;;;;;9.90;4.28;;;;;;;;;;4731424;30;20056;-63
2023/04/23 03:59:59;;;;;;;13.52;4.70;;;;;;;;;;4748999;30;20064;-63
2023/04/23 04:02:40;;;;;;;10.32;4.32;;;;;;;;;;4749338;30;20067;-66
2023/04/23 04:05:13;;;;;;;9.25;3.90;;;;;;;;;;4732866;30;20056;-62
2023/04/23 04:07:45;;;;;;;15.43;4.25;;;;;;;;;;4745207;30;20060;-62
2023/04/23 04:10:17;;;;;;;11.43;3.92;;;;;;;;;;4732149;30;20059;-63
2023/04/23 04:12:48;;;;;;;7.50;3.65;;;;;;;;;;4765813;30;20075;-62
2023/04/23 04:15:19;;;;;;;9.00;4.13;;;;;;;;;;4748812;30;20517;-62
2023/04/23 04:17:50;;;;;;;10.73;4.65;;;;;;;;;;4749117;30;20068;-66
2023/04/23 04:20:20;;;;;;;10.27;4.00;;;;;;;;;;4749167;30;20062;-65
2023/04/23 04:22:50;;;;;;;12.70;4.18;;;;;;;;;;4777108;29;20063;-63
2023/04/23 04:25:21;;;;;;;10.48;4.05;;;;;;;;;;4770117;29;20063;-66
2023/04/23 04:27:51;;;;;;;10.75;4.25;;;;;;;;;;4786259;29;20440;-62
2023/04/23 04:30:21;;;;;;;8.60;3.83;;;;;;;;;;4828282;29;20538;-63
2023/04/23 04:32:51;;;;;;;9.10;4.20;;;;;;;;;;4819474;29;20054;-61
2023/04/23 04:35:22;;;;;;;9.07;3.80;;;;;;;;;;4823713;29;20057;-62
2023/04/23 04:37:53;;;;;;;12.65;4.07;;;;;;;;;;4838942;29;20111;-64
2023/04/23 04:40:25;;;;;;;10.02;3.78;;;;;;;;;;4838786;29;20066;-63
2023/04/23 04:42:56;;;;;;;11.93;4.00;;;;;;;;;;4838070;29;20054;-63
2023/04/23 04:45:26;;;;;;;13.23;4.55;;;;;;;;;;4858034;29;20546;-62
2023/04/23 04:47:56;;;;;;;8.88;3.70;;;;;;;;;;4885163;29;20056;-62
2023/04/23 04:50:27;;;;;;;11.23;4.35;;;;;;;;;;4890649;29;20051;-62
2023/04/23 04:52:57;;;;;;;8.82;3.88;;;;;;;;;;4960873;28;20061;-63
2023/04/23 04:55:27;;;;;;;9.88;3.58;;;;;;;;;;4989925;28;20058;-62
2023/04/23 04:57:58;;;;;;;9.20;3.63;;;;;;;;;;4970218;28;20051;-63
2023/04/23 05:00:30;;;;;;;9.18;3.70;;;;;;;;;;4934262;29;20512;-62
2023/04/23 05:03:00;;;;;;;9.57;3.85;;;;;;;;;;4951072;29;20515;-61
2023/04/23 05:05:32;;;;;;;9.27;3.70;;;;;;;;;;4950960;29;20070;-62
2023/04/23 05:08:02;;;;;;;12.02;3.45;;;;;;;;;;4961410;28;20410;-62
2023/04/23 05:10:32;;;;;;;12.73;3.35;;;;;;;;;;4989806;28;20065;-62
2023/04/23 05:13:02;;;;;;;8.77;3.60;;;;;;;;;;4989756;28;20058;-62
2023/04/23 05:15:32;;;;;;;9.90;3.80;;;;;;;;;;4957999;28;20796;-62
2023/04/23 05:18:05;;;;;;;6.90;3.50;;;;;;;;;;4973357;28;20051;-62
2023/04/23 05:20:37;;;;;;;9.00;3.65;;;;;;;;;;4956697;28;20054;-62
2023/04/23 05:23:07;;;;;;;9.57;3.40;;;;;;;;;;4989450;28;20046;-62
2023/04/23 05:25:38;;;;;;;8.80;3.72;;;;;;;;;;4989390;28;20415;-62
2023/04/23 05:28:08;;;;;;;9.55;3.55;;;;;;;;;;4957159;28;20061;-64
2023/04/23 05:30:38;;;;;;;6.32;2.97;;;;;;;;;;4989501;28;20521;-62
2023/04/23 05:33:09;;;;;;;12.93;3.58;;;;;;;;;;4989453;28;20580;-62
2023/04/23 05:35:39;;;;;;;7.07;3.30;;;;;;;;;;4973106;28;20050;-63
2023/04/23 05:38:09;;;;;;;7.63;3.15;;;;;;;;;;4989381;28;20050;-63
2023/04/23 05:40:40;;;;;;;6.78;3.20;;;;;;;;;;4989213;28;20053;-63
2023/04/23 05:43:10;;;;;;;10.65;3.60;;;;;;;;;;4988870;28;20038;-66
2023/04/23 05:45:40;;;;;;;7.50;3.38;;;;;;;;;;5000327;28;20061;-62
2023/04/23 05:48:10;;;;;;;8.13;3.60;;;;;;;;;;5011227;28;20042;-62
2023/04/23 05:50:40;;;;;;;8.10;3.40;;;;;;;;;;5011009;28;20050;-62
2023/04/23 05:53:10;;;;;;;8.75;3.03;;;;;;;;;;5011398;28;20045;-62
2023/04/23 05:55:41;;;;;;;14.68;4.50;;;;;;;;;;4934151;29;20598;-61
2023/04/23 05:58:11;;;;;;;6.72;3.20;;;;;;;;;;4950049;29;20397;-62
2023/04/23 06:00:41;;;;;;;9.50;3.47;;;;;;;;;;4919157;29;20055;-64
2023/04/23 06:03:11;;;;;;;7.18;3.40;;;;;;;;;;4899485;29;20058;-62
2023/04/23 06:05:42;;;;;;;12.50;3.42;;;;;;;;;;4931415;29;20060;-62
2023/04/23 06:08:12;;;;;;;9.13;3.60;;;;;;;;;;4947285;28;20052;-62
2023/04/23 06:10:42;;;;;;;7.97;3.67;;;;;;;;;;4935364;29;20048;-63
2023/04/23 06:13:12;;;;;;;8.30;2.97;;;;;;;;;;4903397;29;20408;-62
2023/04/23 06:15:42;;;;;;;10.10;3.33;;;;;;;;;;4934731;29;20535;-63
2023/04/23 06:18:12;;;;;;;7.00;3.30;;;;;;;;;;4903321;29;20051;-62
2023/04/23 06:20:43;;;;;;;10.70;3.83;;;;;;;;;;4903239;29;20519;-62
2023/04/23 06:23:14;;;;;;;8.90;3.33;;;;;;;;;;4877879;29;20061;-62
2023/04/23 06:25:44;;;;;;;8.45;3.38;;;;;;;;;;4848004;29;20057;-65
2023/04/23 06:28:14;;;;;;;11.43;3.88;;;;;;;;;;4878325;29;20433;-62
2023/04/23 06:31:05;;;;;;;11.40;4.50;;;;;;;;;;4865227;29;20053;-62
2023/04/23 06:33:36;;;;;;;8.38;4.07;;;;;;;;;;4889374;29;20052;-62
2023/04/23 06:36:10;;;;;;;9.00;3.60;;;;;;;;;;4896794;29;20198;-62
2023/04/23 06:38:40;;;;;;;13.10;3.95;;;;;;;;;;4896824;29;20437;-63
2023/04/23 06:41:12;;;;;;;9.70;3.20;;;;;;;;;;4909314;29;20063;-62
2023/04/23 06:43:42;;;;;;;9.88;3.55;;;;;;;;;;4884424;29;20052;-61
2023/04/23 06:46:31;;;;;;;10.45;3.35;;;;;;;;;;4883154;29;20509;-63
2023/04/23 06:49:01;;;;;;;9.25;3.22;;;;;;;;;;4880950;29;20065;-62
2023/04/23 06:51:32;;;;;;;9.82;3.38;;;;;;;;;;4865361;29;20060;-63
2023/04/23 06:54:02;;;;;;;8.18;3.45;;;;;;;;;;4896669;29;20063;-65
2023/04/23 06:56:32;;;;;;;9.23;3.53;;;;;;;;;;4896612;29;20056;-66
2023/04/23 06:59:03;;;;;;;10.82;3.60;;;;;;;;;;4912109;29;20061;-63
2023/04/23 07:01:35;;;;;;;8.90;3.30;;;;;;;;;;4942414;29;20062;-63
2023/04/23 07:04:05;;;;;;;9.35;3.50;;;;;;;;;;4937732;29;20062;-63
2023/04/23 07:06:35;;;;;;;9.48;3.42;;;;;;;;;;4953310;29;20059;-63
2023/04/23 07:09:06;;;;;;;11.35;3.95;;;;;;;;;;4953380;29;20047;-63
2023/04/23 07:11:36;;;;;;;9.73;3.63;;;;;;;;;;4949419;28;20047;-67
2023/04/23 07:14:06;;;;;;;10.95;3.85;;;;;;;;;;4954263;28;20051;-62
2023/04/23 07:16:36;;;;;;;7.60;3.63;;;;;;;;;;4958598;28;20067;-62
2023/04/23 07:19:06;;;;;;;10.38;4.10;;;;;;;;;;4978902;28;20050;-62
2023/04/23 07:21:36;;;;;;;10.27;3.90;;;;;;;;;;4977646;28;20060;-63
2023/04/23 07:24:07;;;;;;;10.43;3.30;;;;;;;;;;5011447;28;20049;-63
2023/04/23 07:26:37;;;;;;;9.35;4.25;;;;;;;;;;5011160;28;20072;-62
2023/04/23 07:29:10;;;;;;;11.18;4.03;;;;;;;;;;4946639;28;20053;-62
2023/04/23 07:31:40;;;;;;;9.18;3.58;;;;;;;;;;4980224;28;20469;-62
2023/04/23 07:34:11;;;;;;;8.95;3.47;;;;;;;;;;4978473;28;20061;-62
2023/04/23 07:36:41;;;;;;;9.02;3.45;;;;;;;;;;5011164;28;20049;-64
2023/04/23 07:39:11;;;;;;;10.27;3.40;;;;;;;;;;5011894;28;20061;-63
2023/04/23 07:41:41;;;;;;;9.45;3.55;;;;;;;;;;4971745;28;20051;-62
2023/04/23 07:44:11;;;;;;;11.13;3.40;;;;;;;;;;4971684;28;20070;-63
2023/04/23 07:46:41;;;;;;;8.02;3.28;;;;;;;;;;4972051;28;20058;-62
2023/04/23 07:49:11;;;;;;;7.85;3.38;;;;;;;;;;4939376;28;20058;-63
2023/04/23 07:51:41;;;;;;;11.15;3.47;;;;;;;;;;4955360;28;20058;-62
2023/04/23 07:54:11;;;;;;;12.95;3.17;;;;;;;;;;4955910;28;20063;-62
2023/04/23 07:56:41;;;;;;;10.50;3.30;;;;;;;;;;4971591;28;20085;-62
2023/04/23 07:59:11;;;;;;;9.15;3.28;;;;;;;;;;4971499;28;20058;-63
2023/04/23 08:01:41;;;;;;;7.70;3.00;;;;;;;;;;4971534;28;20057;-63
2023/04/23 08:04:12;;;;;;;9.10;3.33;;;;;;;;;;4939530;28;20625;-62
2023/04/23 08:06:43;;;;;;;10.85;3.28;;;;;;;;;;4971450;28;20063;-62
2023/04/23 08:09:13;;;;;;;8.98;3.95;;;;;;;;;;4952198;29;20107;-64
2023/04/23 08:11:43;;;;;;;11.85;3.20;;;;;;;;;;4936364;29;20063;-63
2023/04/23 08:14:13;;;;;;;11.02;3.33;;;;;;;;;;4952066;29;20066;-62
2023/04/23 08:16:44;;;;;;;7.63;3.80;;;;;;;;;;4904345;29;20467;-63
2023/04/23 08:19:14;;;;;;;7.82;3.17;;;;;;;;;;4969856;28;20058;-65
2023/04/23 08:21:44;;;;;;;9.07;2.92;;;;;;;;;;4958919;28;20054;-62
2023/04/23 08:24:14;;;;;;;7.28;3.33;;;;;;;;;;4958009;28;20046;-62
2023/04/23 08:26:45;;;;;;;9.27;3.65;;;;;;;;;;4991022;28;20066;-62
2023/04/23 08:29:17;;;;;;;9.45;3.72;;;;;;;;;;4951770;29;20055;-62
2023/04/23 08:31:47;;;;;;;9.68;3.42;;;;;;;;;;4951264;28;20503;-62
2023/04/23 08:34:17;;;;;;;10.48;3.47;;;;;;;;;;4951616;29;20063;-62
2023/04/23 08:36:48;;;;;;;9.07;3.28;;;;;;;;;;4951819;29;20059;-63
2023/04/23 08:39:18;;;;;;;9.77;3.38;;;;;;;;;;4935523;29;20515;-62
2023/04/23 08:41:55;;;;;;;9.25;3.97;;;;;;;;;;4932368;29;20056;-63
2023/04/23 08:44:26;;;;;;;9.50;3.17;;;;;;;;;;4932347;29;20059;-63
2023/04/23 08:46:57;;;;;;;8.73;3.13;;;;;;;;;;4917021;29;20056;-63
2023/04/23 08:49:32;;;;;;;8.93;3.13;;;;;;;;;;4962377;28;20051;-62
2023/04/23 08:52:18;;;;;;;8.13;3.42;;;;;;;;;;4932454;29;20056;-62
2023/04/23 08:54:52;;;;;;;6.97;3.13;;;;;;;;;;4931900;29;20056;-62
2023/04/23 08:57:23;;;;;;;7.80;3.38;;;;;;;;;;4932398;29;20062;-62
2023/04/23 08:59:54;;;;;;;9.40;3.40;;;;;;;;;;4937094;29;20059;-62
2023/04/23 09:02:25;;;;;;;9.10;4.13;;;;;;;;;;4951324;29;20043;-63
2023/04/23 09:04:56;;;;;;;11.32;3.72;;;;;;;;;;4966845;28;20069;-62
2023/04/23 09:07:26;;;;;;;9.30;4.05;;;;;;;;;;4951047;29;20055;-64
2023/04/23 09:09:56;;;;;;;6.68;3.03;;;;;;;;;;4919536;29;20062;-62
2023/04/23 09:12:27;;;;;;;10.70;4.38;;;;;;;;;;4903682;29;20138;-62
2023/04/23 09:14:57;;;;;;;9.57;4.07;;;;;;;;;;4934959;29;20062;-62
2023/04/23 09:17:29;;;;;;;12.00;3.67;;;;;;;;;;4951229;29;20160;-62
2023/04/23 09:20:00;;;;;;;7.75;2.92;;;;;;;;;;4935250;29;20063;-62
2023/04/23 09:22:53;;;;;;;9.32;3.75;;;;;;;;;;4950920;29;20440;-63
2023/04/23 09:25:25;;;;;;;8.18;3.38;;;;;;;;;;4912454;29;20520;-62
2023/04/23 09:27:58;;;;;;;9.35;3.53;;;;;;;;;;4881888;29;20417;-65
2023/04/23 09:30:29;;;;;;;7.05;2.85;;;;;;;;;;4912686;29;20064;-63
2023/04/23 09:32:59;;;;;;;8.07;3.30;;;;;;;;;;4939991;29;20163;-63
2023/04/23 09:35:34;;;;;;;7.28;3.60;;;;;;;;;;4918638;29;20061;-67
2023/04/23 09:38:09;;;;;;;11.68;3.17;;;;;;;;;;4918779;29;20062;-62
2023/04/23 09:40:39;;;;;;;8.40;3.40;;;;;;;;;;4931031;29;20051;-62
2023/04/23 09:43:10;;;;;;;6.75;2.88;;;;;;;;;;4930567;29;20060;-62
2023/04/23 09:45:50;;;;;;;8.65;3.33;;;;;;;;;;4931481;29;20539;-63
2023/04/23 09:48:20;;;;;;;9.80;3.45;;;;;;;;;;4899646;29;20094;-61
2023/04/23 09:50:54;;;;;;;8.15;3.17;;;;;;;;;;4931389;29;20066;-61
2023/04/23 09:53:26;;;;;;;9.75;3.50;;;;;;;;;;4931312;29;20068;-61
2023/04/23 09:55:56;;;;;;;10.30;3.75;;;;;;;;;;4931283;29;20568;-62
2023/04/23 09:58:26;;;;;;;6.70;2.72;;;;;;;;;;4931149;29;20067;-62
2023/04/23 10:01:06;;;;;;;7.50;2.85;;;;;;;;;;4927871;29;20063;-62
2023/04/23 10:03:42;;;;;;;7.60;3.10;;;;;;;;;;4930707;28;20065;-63
2023/04/23 10:06:15;;;;;;;9.07;3.20;;;;;;;;;;4941456;28;20130;-61
2023/04/23 10:09:06;;;;;;;9.20;3.70;;;;;;;;;;4989054;28;20077;-67
2023/04/23 10:11:37;;;;;;;7.40;3.45;;;;;;;;;;4973122;28;20070;-61
2023/04/23 10:14:08;;;;;;;11.10;3.88;;;;;;;;;;4972815;28;20549;-62
2023/04/23 10:16:39;;;;;;;8.38;3.70;;;;;;;;;;4989032;28;20077;-63
2023/04/23 10:19:21;;;;;;;8.40;3.58;;;;;;;;;;4959772;28;20056;-62
2023/04/23 10:21:56;;;;;;;12.20;3.65;;;;;;;;;;5011142;28;20042;-61
2023/04/23 10:24:48;;;;;;;11.57;4.35;;;;;;;;;;5005768;28;20052;-66
2023/04/23 10:27:21;;;;;;;8.57;3.78;;;;;;;;;;4976529;28;20514;-61
2023/04/23 10:30:09;;;;;;;9.68;3.97;;;;;;;;;;4990352;28;20066;-63
2023/04/23 10:32:40;;;;;;;9.98;4.13;;;;;;;;;;4989386;28;20502;-62
2023/04/23 10:35:11;;;;;;;10.73;4.45;;;;;;;;;;4974812;28;20050;-61
2023/04/23 10:37:43;;;;;;;11.77;4.60;;;;;;;;;;4992668;28;20050;-63
2023/04/23 10:40:14;;;;;;;;;;;;;;;;;;4992594;28;20058;-62
2023/04/23 10:42:44;;;;;;;10.98;4.45;;;;;;;;;;4973216;28;19922;-62
2023/04/23 10:45:20;;;;;;;16.35;6.70;;;;;;;;;;4993454;28;20051;-62
2023/04/23 10:47:54;;;;;;;16.20;7.07;;;;;;;;;;5010910;28;20054;-62
2023/04/23 10:50:29;;;;;;;14.27;6.20;;;;;;;;;;5010576;28;20046;-62
2023/04/23 10:53:01;;;;;;;15.60;5.70;;;;;;;;;;5010690;28;20042;-63
2023/04/23 10:55:32;;;;;;;13.18;5.63;;;;;;;;;;5013118;28;20053;-62
2023/04/23 10:58:07;;;;;;;17.15;5.50;;;;;;;;;;5014345;28;20048;-62
2023/04/23 11:00:45;;;;;;;14.43;5.57;;;;;;;;;;4976330;28;20446;-62
2023/04/23 11:03:41;;;;;;;11.00;5.00;;;;;;;;;;4975860;28;20491;-61
2023/04/23 11:06:19;;;;;;;9.90;4.85;;;;;;;;;;4960032;28;20073;-61
2023/04/23 11:08:52;;;;;;;11.88;5.40;;;;;;;;;;4953152;29;20508;-67
2023/04/23 11:11:42;;;;;;;10.40;4.78;;;;;;;;;;4953284;29;20061;-61
2023/04/23 11:14:13;;;;;;;11.98;4.93;;;;;;;;;;4936792;29;20058;-62
2023/04/23 11:16:43;;;;;;;12.35;5.38;;;;;;;;;;4953263;29;20051;-61
2023/04/23 11:19:14;;;;;;;10.52;4.38;;;;;;;;;;4905414;29;20059;-62
2023/04/23 11:22:11;;;;;;;14.00;4.82;;;;;;;;;;4953080;29;20155;-62
2023/04/23 11:24:45;;;;;;;12.52;4.95;;;;;;;;;;4952826;29;20059;-62
2023/04/23 11:27:19;;;;;;;8.52;4.18;;;;;;;;;;4953024;29;20059;-62
2023/04/23 11:29:49;;;;;;;15.35;7.40;;;;;;;;;;4937171;29;20062;-62
2023/04/23 11:32:20;;;;;;;15.75;6.50;;;;;;;;;;4936582;28;20070;-62
2023/04/23 11:34:52;;;;;;;17.27;6.53;;;;;;;;;;4952571;29;20070;-61
2023/04/23 11:37:22;;;;;;;10.32;5.32;;;;;;;;;;4952841;29;20047;-62
2023/04/23 11:39:52;;;;;;;8.88;4.68;;;;;;;;;;4933686;29;20059;-62
2023/04/23 11:42:22;;;;;;;11.60;3.88;;;;;;;;;;4952944;29;20637;-62
2023/04/23 11:44:53;;;;;;;12.48;4.95;;;;;;;;;;4901584;29;20060;-63
2023/04/23 11:47:25;;;;;;;9.75;3.47;;;;;;;;;;4956127;28;20054;-64
2023/04/23 11:49:56;;;;;;;5.72;2.20;;;;;;;;;;4939683;28;20046;-65
2023/04/23 11:52:26;;;;;;;3.28;1.50;;;;;;;;;;4917462;28;20527;-62
2023/04/23 11:55:01;;;;;;;3.33;1.10;;;;;;;;;;4971698;28;20055;-62
2023/04/23 11:57:36;;;;;;;3.53;1.02;;;;;;;;;;4971722;28;20593;-62
2023/04/23 12:00:28;;;;;;;2.58;0.90;;;;;;;;;;4971181;28;20059;-65
2023/04/23 12:02:59;;;;;;;2.83;0.98;;;;;;;;;;4971390;28;20051;-64
2023/04/23 12:05:35;;;;;;;3.42;0.90;;;;;;;;;;4938979;28;20047;-64
2023/04/23 12:08:09;;;;;;;1.92;1.08;;;;;;;;;;4970992;28;20058;-62
2023/04/23 12:10:48;;;;;;;1.63;0.63;;;;;;;;;;4970750;28;20054;-62
2023/04/23 12:13:34;;;;;;;2.58;1.08;;;;;;;;;;4938396;28;20062;-63
2023/04/23 12:16:05;;;;;;;2.33;0.95;;;;;;;;;;4971123;28;20629;-62
2023/04/23 12:18:43;;;;;;;2.42;0.77;;;;;;;;;;4971155;28;20051;-63
2023/04/23 12:21:13;;;;;;;2.20;0.70;;;;;;;;;;4883061;29;20056;-64
2023/04/23 12:23:44;;;;;;;4.00;0.70;;;;;;;;;;4882375;29;20052;-64
2023/04/23 12:26:15;;;;;;;1.05;0.60;;;;;;;;;;4866369;29;20044;-62
2023/04/23 12:28:51;;;;;;;3.28;1.25;;;;;;;;;;4931115;29;21440;-63
2023/04/23 12:31:28;;;;;;;5.05;1.00;;;;;;;;;;4913350;29;20091;-63
2023/04/23 12:34:05;;;;;;;1.55;0.63;;;;;;;;;;4866512;29;20053;-63
2023/04/23 12:36:38;;;;;;;3.00;0.95;;;;;;;;;;4866603;29;20064;-62
2023/04/23 12:39:26;;;;;;;1.60;1.00;;;;;;;;;;4899761;29;20049;-63
2023/04/23 12:42:03;;;;;;;1.80;0.80;;;;;;;;;;4913305;29;20059;-62
2023/04/23 12:44:35;;;;;;;2.08;1.20;;;;;;;;;;4923849;29;20416;-63
2023/04/23 12:47:07;;;;;;;1.75;0.60;;;;;;;;;;4930743;29;20088;-64
2023/04/23 12:49:39;;;;;;;1.13;0.70;;;;;;;;;;4913204;29;20460;-63
2023/04/23 12:52:09;;;;;;;;;;;;;;;;;;4897550;29;20519;-64
2023/04/23 12:54:50;;;;;;;1.50;0.80;;;;;;;;;;4866958;29;19923;-63
2023/04/23 12:57:21;;;;;;;1.63;0.85;;;;;;;;;;4912861;29;20572;-63
2023/04/23 12:59:53;;;;;;;2.00;0.80;;;;;;;;;;4905591;28;20050;-64
2023/04/23 13:02:24;;;;;;;2.47;0.80;;;;;;;;;;4970473;28;20499;-63
2023/04/23 13:04:59;;;;;;;1.92;0.88;;;;;;;;;;4947233;28;20427;-62
2023/04/23 13:07:29;;;;;;;7.28;1.73;;;;;;;;;;5008798;28;20065;-63
2023/04/23 13:09:59;;;;;;;3.20;1.33;;;;;;;;;;5021896;28;20034;-62
2023/04/23 13:12:29;;;;;;;2.10;1.17;;;;;;;;;;4964114;28;20103;-62
2023/04/23 13:15:00;;;;;;;1.80;0.80;;;;;;;;;;4996633;28;20509;-63
2023/04/23 13:17:30;;;;;;;1.67;0.90;;;;;;;;;;5012605;28;20180;-63
2023/04/23 13:20:03;;;;;;;3.80;1.30;;;;;;;;;;4948121;28;20053;-63
2023/04/23 13:22:34;;;;;;;6.97;2.65;;;;;;;;;;4980089;28;20060;-63
2023/04/23 13:25:04;;;;;;;1.83;1.10;;;;;;;;;;5029848;28;20048;-63
2023/04/23 13:27:34;;;;;;;2.38;0.88;;;;;;;;;;5031249;28;20049;-63
2023/04/23 13:30:05;;;;;;;2.58;0.90;;;;;;;;;;5015626;28;20059;-62
2023/04/23 13:32:36;;;;;;;2.25;1.08;;;;;;;;;;4983019;28;20524;-63
2023/04/23 13:35:06;;;;;;;2.42;0.90;;;;;;;;;;5051023;28;20503;-64
2023/04/23 13:37:39;;;;;;;4.15;1.75;;;;;;;;;;5015865;28;20045;-63
2023/04/23 13:40:10;;;;;;;7.38;3.35;;;;;;;;;;5015936;28;20061;-63
2023/04/23 13:42:40;;;;;;;2.72;1.50;;;;;;;;;;5050764;28;20048;-63
2023/04/23 13:45:11;;;;;;;3.78;1.90;;;;;;;;;;4999763;28;20052;-63
2023/04/23 13:47:42;;;;;;;2.13;0.90;;;;;;;;;;5050664;28;20040;-63
2023/04/23 13:50:12;;;;;;;2.50;1.05;;;;;;;;;;4999233;28;20049;-63
2023/04/23 13:52:42;;;;;;;3.13;1.20;;;;;;;;;;4999247;28;20064;-64
2023/04/23 13:55:12;;;;;;;1.52;0.88;;;;;;;;;;4999495;28;20064;-63
2023/04/23 13:57:44;;;;;;;2.83;1.10;;;;;;;;;;5015148;28;20049;-63
2023/04/23 14:00:14;;;;;;;2.08;1.00;;;;;;;;;;5002924;28;20509;-64
2023/04/23 14:02:44;;;;;;;1.52;1.10;;;;;;;;;;5050937;28;20056;-63
2023/04/23 14:05:15;;;;;;;2.60;0.98;;;;;;;;;;4999137;28;20064;-63
2023/04/23 14:07:47;;;;;;;2.88;0.70;;;;;;;;;;5050506;28;20041;-63
2023/04/23 14:10:17;;;;;;;4.28;0.90;;;;;;;;;;5050771;28;20493;-65
2023/04/23 14:12:48;;;;;;;1.38;0.68;;;;;;;;;;5050503;28;20041;-63
2023/04/23 14:15:19;;;;;;;4.45;1.10;;;;;;;;;;4952002;28;20061;-63
2023/04/23 14:17:49;;;;;;;2.42;0.90;;;;;;;;;;5042057;28;20037;-64
2023/04/23 14:20:20;;;;;;;2.33;1.10;;;;;;;;;;4996537;28;20054;-62
2023/04/23 14:22:56;;;;;;;1.85;1.08;;;;;;;;;;5030301;28;20248;-63
2023/04/23 14:25:40;;;;;;;1.52;0.80;;;;;;;;;;5024156;28;20091;-62
2023/04/23 14:28:46;;;;;;;1.45;0.70;;;;;;;;;;5034377;28;20473;-64
2023/04/23 14:31:16;;;;;;;3.58;1.60;;;;;;;;;;4940790;28;20714;-63
2023/04/23 14:33:46;;;;;;;4.80;1.58;;;;;;;;;;4972878;28;20058;-63
2023/04/23 14:36:16;;;;;;;1.58;0.70;;;;;;;;;;4975174;28;20061;-63
2023/04/23 14:38:46;;;;;;;2.00;0.90;;;;;;;;;;4992430;28;20054;-63
2023/04/23 14:41:16;;;;;;;1.85;0.80;;;;;;;;;;4972759;28;20059;-64
2023/04/23 14:43:46;;;;;;;2.15;0.80;;;;;;;;;;4972983;28;20058;-64
2023/04/23 14:46:16;;;;;;;1.83;0.93;;;;;;;;;;4972800;28;20074;-63
2023/04/23 14:48:47;;;;;;;2.95;1.10;;;;;;;;;;4908919;28;20159;-64
2023/04/23 14:51:19;;;;;;;;;;;;;;;;;;4957727;28;20066;-65
2023/04/23 14:53:49;;;;;;;1.38;0.70;;;;;;;;;;4956625;28;19922;-64
2023/04/23 14:56:20;;;;;;;;;;;;;;;;;;4925310;28;20050;-63
2023/04/23 14:58:50;;;;;;;1.90;0.60;;;;;;;;;;4972736;28;19929;-64
2023/04/23 15:01:20;;;;;;;1.65;0.75;;;;;;;;;;4956685;28;20058;-63
2023/04/23 15:03:52;;;;;;;5.10;2.38;;;;;;;;;;4976797;28;20392;-63
2023/04/23 15:06:22;;;;;;;1.83;0.70;;;;;;;;;;4982824;28;20058;-64
2023/04/23 15:08:52;;;;;;;2.33;1.20;;;;;;;;;;5011785;28;20085;-64